sensor_id;sensor_type;location;lat;lon;timestamp;P1;durP1;ratioP1;P2;durP2;ratioP2
20181;SDS011;10250;50.756;6.172;2023-04-01T00:00:44;0.90;;;0.50;;
20181;SDS011;10250;50.756;6.172;2023-04-01T00:02:44;0.80;;;0.30;;
20181;SDS011;10250;50.756;6.172;2023-04-01T00:04:45;0.20;;;0.20;;
20181;SDS011;10250;50.756;6.172;2023-04-01T00:06:46;2.20;;;0.53;;
20181;SDS011;10250;50.756;6.172;2023-04-01T00:08:47;2.00;;;0.30;;
20181;SDS011;10250;50.756;6.172;2023-04-01T00:10:48;0.47;;;0.40;;
20181;SDS011;10250;50.756;6.172;2023-04-01T00:12:48;2.67;;;0.50;;
20181;SDS011;10250;50.756;6.172;2023-04-01T00:14:49;1.50;;;0.50;;
20181;SDS011;10250;50.756;6.172;2023-04-01T00:16:50;0.30;;;0.30;;
20181;SDS011;10250;50.756;6.172;2023-04-01T00:18:50;6.13;;;0.70;;
20181;SDS011;10250;50.756;6.172;2023-04-01T00:20:52;4.70;;;0.60;;
20181;SDS011;10250;50.756;6.172;2023-04-01T00:22:52;0.70;;;0.30;;
20181;SDS011;10250;50.756;6.172;2023-04-01T00:24:53;2.60;;;0.57;;
20181;SDS011;10250;50.756;6.172;2023-04-01T00:26:54;0.90;;;0.20;;
20181;SDS011;10250;50.756;6.172;2023-04-01T00:28:55;0.50;;;0.30;;
20181;SDS011;10250;50.756;6.172;2023-04-01T00:30:55;1.17;;;0.33;;
20181;SDS011;10250;50.756;6.172;2023-04-01T00:32:56;0.33;;;0.27;;
20181;SDS011;10250;50.756;6.172;2023-04-01T00:34:57;0.20;;;0.20;;
20181;SDS011;10250;50.756;6.172;2023-04-01T00:36:59;2.83;;;0.40;;
20181;SDS011;10250;50.756;6.172;2023-04-01T00:39:00;1.07;;;0.50;;
20181;SDS011;10250;50.756;6.172;2023-04-01T00:41:00;1.50;;;0.40;;
20181;SDS011;10250;50.756;6.172;2023-04-01T00:43:01;0.87;;;0.30;;
20181;SDS011;10250;50.756;6.172;2023-04-01T00:47:42;0.10;;;0.10;;
20181;SDS011;10250;50.756;6.172;2023-04-01T00:49:44;1.70;;;0.30;;
20181;SDS011;10250;50.756;6.172;2023-04-01T00:51:49;1.90;;;0.40;;
20181;SDS011;10250;50.756;6.172;2023-04-01T00:53:53;2.07;;;0.40;;
20181;SDS011;10250;50.756;6.172;2023-04-01T00:55:58;4.13;;;0.70;;
20181;SDS011;10250;50.756;6.172;2023-04-01T00:58:22;1.13;;;0.40;;
20181;SDS011;10250;50.756;6.172;2023-04-01T01:00:25;2.03;;;0.50;;
20181;SDS011;10250;50.756;6.172;2023-04-01T01:02:26;0.93;;;0.30;;
20181;SDS011;10250;50.756;6.172;2023-04-01T01:04:31;0.20;;;0.20;;
20181;SDS011;10250;50.756;6.172;2023-04-01T01:10:58;1.77;;;0.43;;
20181;SDS011;10250;50.756;6.172;2023-04-01T01:15:53;0.20;;;0.20;;
20181;SDS011;10250;50.756;6.172;2023-04-01T01:20:33;1.70;;;0.30;;
20181;SDS011;10250;50.756;6.172;2023-04-01T01:27:40;2.17;;;0.40;;
20181;SDS011;10250;50.756;6.172;2023-04-01T01:32:18;0.40;;;0.30;;
20181;SDS011;10250;50.756;6.172;2023-04-01T01:34:35;0.50;;;0.23;;
20181;SDS011;10250;50.756;6.172;2023-04-01T01:36:46;0.33;;;0.27;;
20181;SDS011;10250;50.756;6.172;2023-04-01T01:38:51;2.13;;;0.40;;
20181;SDS011;10250;50.756;6.172;2023-04-01T01:40:52;1.43;;;0.40;;
20181;SDS011;10250;50.756;6.172;2023-04-01T01:42:58;1.03;;;0.30;;
20181;SDS011;10250;50.756;6.172;2023-04-01T01:45:04;1.70;;;0.60;;
20181;SDS011;10250;50.756;6.172;2023-04-01T01:47:06;0.30;;;0.30;;
20181;SDS011;10250;50.756;6.172;2023-04-01T01:49:07;0.67;;;0.27;;
20181;SDS011;10250;50.756;6.172;2023-04-01T01:51:11;0.97;;;0.37;;
20181;SDS011;10250;50.756;6.172;2023-04-01T01:53:12;0.97;;;0.30;;
20181;SDS011;10250;50.756;6.172;2023-04-01T01:57:32;0.40;;;0.30;;
20181;SDS011;10250;50.756;6.172;2023-04-01T01:59:35;0.73;;;0.30;;
20181;SDS011;10250;50.756;6.172;2023-04-01T02:01:39;0.20;;;0.20;;
20181;SDS011;10250;50.756;6.172;2023-04-01T02:03:44;0.20;;;0.20;;
20181;SDS011;10250;50.756;6.172;2023-04-01T02:05:47;1.00;;;0.30;;
20181;SDS011;10250;50.756;6.172;2023-04-01T02:07:52;0.43;;;0.30;;
20181;SDS011;10250;50.756;6.172;2023-04-01T02:10:00;0.60;;;0.30;;
20181;SDS011;10250;50.756;6.172;2023-04-01T02:12:06;0.20;;;0.20;;
20181;SDS011;10250;50.756;6.172;2023-04-01T02:14:27;0.77;;;0.23;;
20181;SDS011;10250;50.756;6.172;2023-04-01T02:16:48;0.63;;;0.33;;
20181;SDS011;10250;50.756;6.172;2023-04-01T02:19:02;0.80;;;0.30;;
20181;SDS011;10250;50.756;6.172;2023-04-01T02:21:07;0.37;;;0.20;;
20181;SDS011;10250;50.756;6.172;2023-04-01T02:23:09;0.43;;;0.20;;
20181;SDS011;10250;50.756;6.172;2023-04-01T02:25:12;1.07;;;0.40;;
20181;SDS011;10250;50.756;6.172;2023-04-01T02:27:15;1.80;;;0.30;;
20181;SDS011;10250;50.756;6.172;2023-04-01T02:29:16;2.33;;;0.40;;
20181;SDS011;10250;50.756;6.172;2023-04-01T02:31:20;0.30;;;0.20;;
20181;SDS011;10250;50.756;6.172;2023-04-01T02:33:22;0.20;;;0.20;;
20181;SDS011;10250;50.756;6.172;2023-04-01T02:35:23;1.60;;;0.67;;
20181;SDS011;10250;50.756;6.172;2023-04-01T02:37:25;1.27;;;0.30;;
20181;SDS011;10250;50.756;6.172;2023-04-01T02:39:26;0.30;;;0.30;;
20181;SDS011;10250;50.756;6.172;2023-04-01T02:41:27;0.20;;;0.20;;
20181;SDS011;10250;50.756;6.172;2023-04-01T02:43:28;0.20;;;0.20;;
20181;SDS011;10250;50.756;6.172;2023-04-01T02:45:29;0.20;;;0.20;;
20181;SDS011;10250;50.756;6.172;2023-04-01T02:47:29;1.03;;;0.20;;
20181;SDS011;10250;50.756;6.172;2023-04-01T02:49:30;2.47;;;0.37;;
20181;SDS011;10250;50.756;6.172;2023-04-01T02:51:31;2.17;;;0.40;;
20181;SDS011;10250;50.756;6.172;2023-04-01T02:53:32;0.23;;;0.17;;
20181;SDS011;10250;50.756;6.172;2023-04-01T02:55:33;1.00;;;0.33;;
20181;SDS011;10250;50.756;6.172;2023-04-01T02:57:34;0.30;;;0.30;;
20181;SDS011;10250;50.756;6.172;2023-04-01T02:59:34;2.73;;;0.40;;
20181;SDS011;10250;50.756;6.172;2023-04-01T03:01:35;2.63;;;0.50;;
20181;SDS011;10250;50.756;6.172;2023-04-01T03:03:35;0.97;;;0.40;;
20181;SDS011;10250;50.756;6.172;2023-04-01T03:05:36;0.20;;;0.20;;
20181;SDS011;10250;50.756;6.172;2023-04-01T03:07:37;0.20;;;0.20;;
20181;SDS011;10250;50.756;6.172;2023-04-01T03:09:37;1.30;;;0.20;;
20181;SDS011;10250;50.756;6.172;2023-04-01T03:11:38;0.60;;;0.30;;
20181;SDS011;10250;50.756;6.172;2023-04-01T03:13:40;0.20;;;0.20;;
20181;SDS011;10250;50.756;6.172;2023-04-01T03:15:41;0.20;;;0.20;;
20181;SDS011;10250;50.756;6.172;2023-04-01T03:17:41;0.20;;;0.20;;
20181;SDS011;10250;50.756;6.172;2023-04-01T03:19:43;1.10;;;0.20;;
20181;SDS011;10250;50.756;6.172;2023-04-01T03:21:43;0.47;;;0.20;;
20181;SDS011;10250;50.756;6.172;2023-04-01T03:23:44;0.27;;;0.27;;
20181;SDS011;10250;50.756;6.172;2023-04-01T03:25:45;0.23;;;0.20;;
20181;SDS011;10250;50.756;6.172;2023-04-01T03:27:45;2.70;;;0.30;;
20181;SDS011;10250;50.756;6.172;2023-04-01T03:29:46;0.93;;;0.20;;
20181;SDS011;10250;50.756;6.172;2023-04-01T03:31:46;0.13;;;0.13;;
20181;SDS011;10250;50.756;6.172;2023-04-01T03:33:47;0.20;;;0.20;;
20181;SDS011;10250;50.756;6.172;2023-04-01T03:35:47;0.20;;;0.20;;
20181;SDS011;10250;50.756;6.172;2023-04-01T03:37:51;0.43;;;0.30;;
20181;SDS011;10250;50.756;6.172;2023-04-01T03:39:52;0.20;;;0.20;;
20181;SDS011;10250;50.756;6.172;2023-04-01T03:41:53;0.30;;;0.30;;
20181;SDS011;10250;50.756;6.172;2023-04-01T03:43:53;0.20;;;0.20;;
20181;SDS011;10250;50.756;6.172;2023-04-01T03:45:54;0.37;;;0.33;;
20181;SDS011;10250;50.756;6.172;2023-04-01T03:47:56;1.13;;;0.50;;
20181;SDS011;10250;50.756;6.172;2023-04-01T03:49:57;0.30;;;0.20;;
20181;SDS011;10250;50.756;6.172;2023-04-01T03:51:57;0.20;;;0.20;;
20181;SDS011;10250;50.756;6.172;2023-04-01T03:53:58;0.20;;;0.20;;
20181;SDS011;10250;50.756;6.172;2023-04-01T03:56:02;0.37;;;0.23;;
20181;SDS011;10250;50.756;6.172;2023-04-01T03:58:05;1.70;;;0.40;;
20181;SDS011;10250;50.756;6.172;2023-04-01T04:00:07;0.20;;;0.20;;
20181;SDS011;10250;50.756;6.172;2023-04-01T04:02:08;0.20;;;0.20;;
20181;SDS011;10250;50.756;6.172;2023-04-01T04:04:12;0.20;;;0.20;;
20181;SDS011;10250;50.756;6.172;2023-04-01T04:06:13;0.37;;;0.23;;
20181;SDS011;10250;50.756;6.172;2023-04-01T04:08:14;0.23;;;0.23;;
20181;SDS011;10250;50.756;6.172;2023-04-01T04:10:15;0.23;;;0.20;;
20181;SDS011;10250;50.756;6.172;2023-04-01T04:12:15;0.10;;;0.10;;
20181;SDS011;10250;50.756;6.172;2023-04-01T04:14:16;0.20;;;0.20;;
20181;SDS011;10250;50.756;6.172;2023-04-01T04:16:17;0.70;;;0.30;;
20181;SDS011;10250;50.756;6.172;2023-04-01T04:18:17;0.23;;;0.23;;
20181;SDS011;10250;50.756;6.172;2023-04-01T04:20:18;0.67;;;0.30;;
20181;SDS011;10250;50.756;6.172;2023-04-01T04:22:19;0.20;;;0.20;;
20181;SDS011;10250;50.756;6.172;2023-04-01T04:24:20;0.30;;;0.20;;
20181;SDS011;10250;50.756;6.172;2023-04-01T04:26:20;0.50;;;0.30;;
20181;SDS011;10250;50.756;6.172;2023-04-01T04:28:21;3.10;;;0.40;;
20181;SDS011;10250;50.756;6.172;2023-04-01T04:30:22;0.67;;;0.27;;
20181;SDS011;10250;50.756;6.172;2023-04-01T04:32:22;0.20;;;0.20;;
20181;SDS011;10250;50.756;6.172;2023-04-01T04:34:23;0.40;;;0.30;;
20181;SDS011;10250;50.756;6.172;2023-04-01T04:36:24;0.20;;;0.20;;
20181;SDS011;10250;50.756;6.172;2023-04-01T04:38:25;0.47;;;0.30;;
20181;SDS011;10250;50.756;6.172;2023-04-01T04:40:26;0.53;;;0.30;;
20181;SDS011;10250;50.756;6.172;2023-04-01T04:42:26;0.90;;;0.30;;
20181;SDS011;10250;50.756;6.172;2023-04-01T04:44:27;1.07;;;0.30;;
20181;SDS011;10250;50.756;6.172;2023-04-01T04:46:28;0.40;;;0.30;;
20181;SDS011;10250;50.756;6.172;2023-04-01T04:48:28;1.80;;;0.47;;
20181;SDS011;10250;50.756;6.172;2023-04-01T04:50:29;0.50;;;0.40;;
20181;SDS011;10250;50.756;6.172;2023-04-01T04:52:30;1.13;;;0.43;;
20181;SDS011;10250;50.756;6.172;2023-04-01T04:54:30;0.47;;;0.40;;
20181;SDS011;10250;50.756;6.172;2023-04-01T04:56:31;1.20;;;0.57;;
20181;SDS011;10250;50.756;6.172;2023-04-01T04:58:32;1.47;;;0.50;;
20181;SDS011;10250;50.756;6.172;2023-04-01T05:00:33;1.07;;;0.50;;
20181;SDS011;10250;50.756;6.172;2023-04-01T05:02:34;1.20;;;0.50;;
20181;SDS011;10250;50.756;6.172;2023-04-01T05:04:35;0.43;;;0.40;;
20181;SDS011;10250;50.756;6.172;2023-04-01T05:06:36;1.93;;;0.80;;
20181;SDS011;10250;50.756;6.172;2023-04-01T05:08:37;1.70;;;0.60;;
20181;SDS011;10250;50.756;6.172;2023-04-01T05:10:39;1.87;;;0.50;;
20181;SDS011;10250;50.756;6.172;2023-04-01T05:12:39;1.70;;;0.47;;
20181;SDS011;10250;50.756;6.172;2023-04-01T05:14:40;2.37;;;0.70;;
20181;SDS011;10250;50.756;6.172;2023-04-01T05:16:41;1.43;;;0.60;;
20181;SDS011;10250;50.756;6.172;2023-04-01T05:18:41;0.50;;;0.43;;
20181;SDS011;10250;50.756;6.172;2023-04-01T05:20:49;0.80;;;0.40;;
20181;SDS011;10250;50.756;6.172;2023-04-01T05:22:55;1.13;;;0.53;;
20181;SDS011;10250;50.756;6.172;2023-04-01T05:24:59;2.90;;;0.77;;
20181;SDS011;10250;50.756;6.172;2023-04-01T05:26:59;0.80;;;0.50;;
20181;SDS011;10250;50.756;6.172;2023-04-01T05:29:00;1.97;;;0.60;;
20181;SDS011;10250;50.756;6.172;2023-04-01T05:31:01;1.80;;;0.80;;
20181;SDS011;10250;50.756;6.172;2023-04-01T05:33:03;1.70;;;0.73;;
20181;SDS011;10250;50.756;6.172;2023-04-01T05:35:03;4.10;;;0.83;;
20181;SDS011;10250;50.756;6.172;2023-04-01T05:37:04;2.53;;;0.97;;
20181;SDS011;10250;50.756;6.172;2023-04-01T05:39:07;4.80;;;1.20;;
20181;SDS011;10250;50.756;6.172;2023-04-01T05:41:07;2.13;;;0.90;;
20181;SDS011;10250;50.756;6.172;2023-04-01T05:43:08;1.67;;;0.73;;
20181;SDS011;10250;50.756;6.172;2023-04-01T05:45:09;2.87;;;1.00;;
20181;SDS011;10250;50.756;6.172;2023-04-01T05:47:10;3.70;;;1.03;;
20181;SDS011;10250;50.756;6.172;2023-04-01T05:49:10;2.30;;;0.90;;
20181;SDS011;10250;50.756;6.172;2023-04-01T05:51:12;2.80;;;0.90;;
20181;SDS011;10250;50.756;6.172;2023-04-01T05:53:13;4.07;;;1.00;;
20181;SDS011;10250;50.756;6.172;2023-04-01T05:55:14;4.87;;;1.47;;
20181;SDS011;10250;50.756;6.172;2023-04-01T05:57:14;3.50;;;1.10;;
20181;SDS011;10250;50.756;6.172;2023-04-01T05:59:15;2.40;;;0.70;;
20181;SDS011;10250;50.756;6.172;2023-04-01T06:01:16;4.33;;;1.20;;
20181;SDS011;10250;50.756;6.172;2023-04-01T06:03:16;3.07;;;0.77;;
20181;SDS011;10250;50.756;6.172;2023-04-01T06:05:18;2.53;;;0.70;;
20181;SDS011;10250;50.756;6.172;2023-04-01T06:07:21;3.40;;;0.90;;
20181;SDS011;10250;50.756;6.172;2023-04-01T06:09:29;4.03;;;0.90;;
20181;SDS011;10250;50.756;6.172;2023-04-01T06:14:01;2.90;;;0.90;;
20181;SDS011;10250;50.756;6.172;2023-04-01T06:18:39;4.23;;;0.90;;
20181;SDS011;10250;50.756;6.172;2023-04-01T06:30:45;5.07;;;1.03;;
20181;SDS011;10250;50.756;6.172;2023-04-01T06:46:58;2.33;;;0.87;;
20181;SDS011;10250;50.756;6.172;2023-04-01T06:51:27;1.20;;;0.70;;
20181;SDS011;10250;50.756;6.172;2023-04-01T06:53:38;2.60;;;0.90;;
20181;SDS011;10250;50.756;6.172;2023-04-01T06:55:59;1.10;;;0.60;;
20181;SDS011;10250;50.756;6.172;2023-04-01T06:58:04;3.30;;;0.70;;
20181;SDS011;10250;50.756;6.172;2023-04-01T07:00:13;1.57;;;0.53;;
20181;SDS011;10250;50.756;6.172;2023-04-01T07:02:22;2.10;;;0.60;;
20181;SDS011;10250;50.756;6.172;2023-04-01T07:04:33;0.97;;;0.50;;
20181;SDS011;10250;50.756;6.172;2023-04-01T07:06:39;2.50;;;0.70;;
20181;SDS011;10250;50.756;6.172;2023-04-01T07:08:47;1.83;;;0.73;;
20181;SDS011;10250;50.756;6.172;2023-04-01T07:13:05;1.23;;;0.50;;
20181;SDS011;10250;50.756;6.172;2023-04-01T07:17:26;0.77;;;0.40;;
20181;SDS011;10250;50.756;6.172;2023-04-01T07:24:34;1.60;;;0.60;;
20181;SDS011;10250;50.756;6.172;2023-04-01T07:26:39;0.93;;;0.40;;
20181;SDS011;10250;50.756;6.172;2023-04-01T07:28:40;1.30;;;0.53;;
20181;SDS011;10250;50.756;6.172;2023-04-01T07:33:01;0.37;;;0.33;;
20181;SDS011;10250;50.756;6.172;2023-04-01T07:36:07;1.00;;;0.70;;
20181;SDS011;10250;50.756;6.172;2023-04-01T08:06:26;2.40;;;0.80;;
20181;SDS011;10250;50.756;6.172;2023-04-01T08:08:57;0.40;;;0.30;;
20181;SDS011;10250;50.756;6.172;2023-04-01T08:13:44;0.40;;;0.40;;
20181;SDS011;10250;50.756;6.172;2023-04-01T08:21:02;2.37;;;0.60;;
20181;SDS011;10250;50.756;6.172;2023-04-01T08:23:18;0.40;;;0.40;;
20181;SDS011;10250;50.756;6.172;2023-04-01T08:25:24;1.37;;;0.50;;
20181;SDS011;10250;50.756;6.172;2023-04-01T08:27:28;0.37;;;0.30;;
20181;SDS011;10250;50.756;6.172;2023-04-01T08:29:41;1.47;;;0.53;;
20181;SDS011;10250;50.756;6.172;2023-04-01T08:34:25;2.10;;;0.37;;
20181;SDS011;10250;50.756;6.172;2023-04-01T08:36:38;1.13;;;0.50;;
20181;SDS011;10250;50.756;6.172;2023-04-01T08:38:49;1.10;;;0.50;;
20181;SDS011;10250;50.756;6.172;2023-04-01T08:41:00;1.20;;;0.40;;
20181;SDS011;10250;50.756;6.172;2023-04-01T09:02:45;1.17;;;0.50;;
20181;SDS011;10250;50.756;6.172;2023-04-01T09:25:22;2.20;;;0.60;;
20181;SDS011;10250;50.756;6.172;2023-04-01T09:27:35;1.87;;;0.63;;
20181;SDS011;10250;50.756;6.172;2023-04-01T09:36:44;2.83;;;0.60;;
20181;SDS011;10250;50.756;6.172;2023-04-01T09:43:28;2.43;;;0.53;;
20181;SDS011;10250;50.756;6.172;2023-04-01T09:51:06;2.80;;;0.50;;
20181;SDS011;10250;50.756;6.172;2023-04-01T09:54:13;0.80;;;0.50;;
20181;SDS011;10250;50.756;6.172;2023-04-01T10:25:05;2.23;;;0.63;;
20181;SDS011;10250;50.756;6.172;2023-04-01T10:42:34;1.83;;;0.50;;
20181;SDS011;10250;50.756;6.172;2023-04-01T10:45:06;0.43;;;0.30;;
20181;SDS011;10250;50.756;6.172;2023-04-01T10:52:23;8.67;;;2.07;;
20181;SDS011;10250;50.756;6.172;2023-04-01T10:57:40;2.53;;;0.60;;
20181;SDS011;10250;50.756;6.172;2023-04-01T11:16:59;1.00;;;0.67;;
20181;SDS011;10250;50.756;6.172;2023-04-01T11:19:34;3.50;;;0.73;;
20181;SDS011;10250;50.756;6.172;2023-04-01T11:21:58;2.40;;;0.67;;
20181;SDS011;10250;50.756;6.172;2023-04-01T11:26:32;2.13;;;0.50;;
20181;SDS011;10250;50.756;6.172;2023-04-01T11:28:51;2.23;;;0.60;;
20181;SDS011;10250;50.756;6.172;2023-04-01T11:40:27;2.03;;;0.50;;
20181;SDS011;10250;50.756;6.172;2023-04-01T11:42:44;0.77;;;0.50;;
20181;SDS011;10250;50.756;6.172;2023-04-01T11:47:28;1.23;;;0.60;;
20181;SDS011;10250;50.756;6.172;2023-04-01T11:57:07;1.50;;;0.53;;
20181;SDS011;10250;50.756;6.172;2023-04-01T12:09:25;1.00;;;0.37;;
20181;SDS011;10250;50.756;6.172;2023-04-01T12:12:04;1.10;;;0.53;;
20181;SDS011;10250;50.756;6.172;2023-04-01T12:18:32;2.87;;;0.87;;
20181;SDS011;10250;50.756;6.172;2023-04-01T12:27:59;1.50;;;0.70;;
20181;SDS011;10250;50.756;6.172;2023-04-01T12:34:48;0.50;;;0.50;;
20181;SDS011;10250;50.756;6.172;2023-04-01T12:39:48;1.67;;;0.70;;
20181;SDS011;10250;50.756;6.172;2023-04-01T12:41:53;2.20;;;0.80;;
20181;SDS011;10250;50.756;6.172;2023-04-01T12:44:23;2.27;;;0.80;;
20181;SDS011;10250;50.756;6.172;2023-04-01T12:46:52;3.87;;;0.90;;
20181;SDS011;10250;50.756;6.172;2023-04-01T12:59:29;3.17;;;0.80;;
20181;SDS011;10250;50.756;6.172;2023-04-01T13:08:27;1.77;;;0.70;;
20181;SDS011;10250;50.756;6.172;2023-04-01T13:15:24;1.90;;;0.73;;
20181;SDS011;10250;50.756;6.172;2023-04-01T13:19:53;1.93;;;0.80;;
20181;SDS011;10250;50.756;6.172;2023-04-01T13:29:25;1.77;;;0.70;;
20181;SDS011;10250;50.756;6.172;2023-04-01T13:43:37;1.33;;;0.67;;
20181;SDS011;10250;50.756;6.172;2023-04-01T13:58:24;1.53;;;0.70;;
20181;SDS011;10250;50.756;6.172;2023-04-01T14:03:15;1.10;;;0.70;;
20181;SDS011;10250;50.756;6.172;2023-04-01T14:15:22;2.77;;;0.60;;
20181;SDS011;10250;50.756;6.172;2023-04-01T14:17:35;3.53;;;0.73;;
20181;SDS011;10250;50.756;6.172;2023-04-01T14:22:30;1.17;;;0.50;;
20181;SDS011;10250;50.756;6.172;2023-04-01T14:39:22;3.00;;;0.80;;
20181;SDS011;10250;50.756;6.172;2023-04-01T14:41:48;3.43;;;1.10;;
20181;SDS011;10250;50.756;6.172;2023-04-01T14:44:17;0.63;;;0.50;;
20181;SDS011;10250;50.756;6.172;2023-04-01T14:46:43;0.77;;;0.50;;
20181;SDS011;10250;50.756;6.172;2023-04-01T14:51:40;1.50;;;0.50;;
20181;SDS011;10250;50.756;6.172;2023-04-01T14:53:43;1.50;;;0.70;;
20181;SDS011;10250;50.756;6.172;2023-04-01T14:55:59;0.80;;;0.40;;
20181;SDS011;10250;50.756;6.172;2023-04-01T15:00:14;1.20;;;0.70;;
20181;SDS011;10250;50.756;6.172;2023-04-01T15:06:42;2.17;;;0.60;;
20181;SDS011;10250;50.756;6.172;2023-04-01T15:27:34;1.53;;;0.50;;
20181;SDS011;10250;50.756;6.172;2023-04-01T15:30:02;1.90;;;0.60;;
20181;SDS011;10250;50.756;6.172;2023-04-01T15:32:32;1.20;;;0.63;;
20181;SDS011;10250;50.756;6.172;2023-04-01T15:42:02;1.10;;;0.67;;
20181;SDS011;10250;50.756;6.172;2023-04-01T15:46:43;0.87;;;0.50;;
20181;SDS011;10250;50.756;6.172;2023-04-01T15:55:39;0.57;;;0.50;;
20181;SDS011;10250;50.756;6.172;2023-04-01T16:00:30;1.87;;;0.60;;
20181;SDS011;10250;50.756;6.172;2023-04-01T16:02:44;1.50;;;0.60;;
20181;SDS011;10250;50.756;6.172;2023-04-01T16:07:17;1.73;;;0.70;;
20181;SDS011;10250;50.756;6.172;2023-04-01T16:17:05;1.33;;;0.70;;
20181;SDS011;10250;50.756;6.172;2023-04-01T16:19:32;2.10;;;0.70;;
20181;SDS011;10250;50.756;6.172;2023-04-01T16:21:48;2.83;;;0.90;;
20181;SDS011;10250;50.756;6.172;2023-04-01T16:26:39;2.23;;;0.90;;
20181;SDS011;10250;50.756;6.172;2023-04-01T16:29:02;2.97;;;0.80;;
20181;SDS011;10250;50.756;6.172;2023-04-01T16:31:16;2.27;;;0.93;;
20181;SDS011;10250;50.756;6.172;2023-04-01T16:37:52;1.63;;;0.80;;
20181;SDS011;10250;50.756;6.172;2023-04-01T16:42:19;3.03;;;1.07;;
20181;SDS011;10250;50.756;6.172;2023-04-01T16:47:11;2.20;;;0.90;;
20181;SDS011;10250;50.756;6.172;2023-04-01T16:53:49;2.07;;;0.90;;
20181;SDS011;10250;50.756;6.172;2023-04-01T16:58:01;2.23;;;0.90;;
20181;SDS011;10250;50.756;6.172;2023-04-01T17:00:10;1.83;;;0.90;;
20181;SDS011;10250;50.756;6.172;2023-04-01T17:02:35;2.07;;;0.80;;
20181;SDS011;10250;50.756;6.172;2023-04-01T17:06:53;2.37;;;0.90;;
20181;SDS011;10250;50.756;6.172;2023-04-01T17:11:39;2.33;;;0.93;;
20181;SDS011;10250;50.756;6.172;2023-04-01T17:13:57;2.50;;;0.97;;
20181;SDS011;10250;50.756;6.172;2023-04-01T17:20:29;1.37;;;0.90;;
20181;SDS011;10250;50.756;6.172;2023-04-01T17:22:42;2.53;;;1.20;;
20181;SDS011;10250;50.756;6.172;2023-04-01T17:32:13;4.30;;;1.33;;
20181;SDS011;10250;50.756;6.172;2023-04-01T17:34:30;2.70;;;0.93;;
20181;SDS011;10250;50.756;6.172;2023-04-01T17:36:40;3.87;;;1.23;;
20181;SDS011;10250;50.756;6.172;2023-04-01T17:38:56;3.03;;;1.10;;
20181;SDS011;10250;50.756;6.172;2023-04-01T17:41:48;4.10;;;1.30;;
20181;SDS011;10250;50.756;6.172;2023-04-01T17:55:32;3.70;;;1.13;;
20181;SDS011;10250;50.756;6.172;2023-04-01T18:00:01;3.23;;;1.03;;
20181;SDS011;10250;50.756;6.172;2023-04-01T18:02:32;3.67;;;1.10;;
20181;SDS011;10250;50.756;6.172;2023-04-01T18:04:52;4.03;;;1.30;;
20181;SDS011;10250;50.756;6.172;2023-04-01T18:11:54;2.57;;;1.00;;
20181;SDS011;10250;50.756;6.172;2023-04-01T18:23:43;2.10;;;0.90;;
20181;SDS011;10250;50.756;6.172;2023-04-01T18:26:02;2.27;;;0.90;;
20181;SDS011;10250;50.756;6.172;2023-04-01T18:30:41;1.60;;;0.80;;
20181;SDS011;10250;50.756;6.172;2023-04-01T18:37:39;2.53;;;1.03;;
20181;SDS011;10250;50.756;6.172;2023-04-01T18:40:11;4.03;;;1.20;;
20181;SDS011;10250;50.756;6.172;2023-04-01T18:42:43;3.03;;;1.10;;
20181;SDS011;10250;50.756;6.172;2023-04-01T18:49:56;3.33;;;1.17;;
20181;SDS011;10250;50.756;6.172;2023-04-01T18:54:32;3.47;;;1.07;;
20181;SDS011;10250;50.756;6.172;2023-04-01T18:56:43;4.10;;;1.30;;
20181;SDS011;10250;50.756;6.172;2023-04-01T18:58:46;4.47;;;1.10;;
20181;SDS011;10250;50.756;6.172;2023-04-01T19:03:47;2.73;;;1.00;;
20181;SDS011;10250;50.756;6.172;2023-04-01T19:05:59;1.50;;;0.97;;
20181;SDS011;10250;50.756;6.172;2023-04-01T19:08:42;3.97;;;1.10;;
20181;SDS011;10250;50.756;6.172;2023-04-01T19:10:40;2.87;;;1.00;;
20181;SDS011;10250;50.756;6.172;2023-04-01T19:13:06;1.67;;;0.80;;
20181;SDS011;10250;50.756;6.172;2023-04-01T19:15:34;3.53;;;1.17;;
20181;SDS011;10250;50.756;6.172;2023-04-01T19:20:20;2.23;;;0.80;;
20181;SDS011;10250;50.756;6.172;2023-04-01T19:24:44;2.53;;;0.80;;
20181;SDS011;10250;50.756;6.172;2023-04-01T19:27:14;2.03;;;0.83;;
20181;SDS011;10250;50.756;6.172;2023-04-01T19:29:32;1.93;;;0.80;;
20181;SDS011;10250;50.756;6.172;2023-04-01T19:34:08;2.10;;;0.77;;
20181;SDS011;10250;50.756;6.172;2023-04-01T19:36:43;2.80;;;1.00;;
20181;SDS011;10250;50.756;6.172;2023-04-01T19:38:55;1.23;;;0.80;;
20181;SDS011;10250;50.756;6.172;2023-04-01T19:52:20;3.23;;;0.90;;
20181;SDS011;10250;50.756;6.172;2023-04-01T19:54:42;3.47;;;1.20;;
20181;SDS011;10250;50.756;6.172;2023-04-01T20:01:20;2.17;;;0.80;;
20181;SDS011;10250;50.756;6.172;2023-04-01T20:03:47;3.80;;;1.20;;
20181;SDS011;10250;50.756;6.172;2023-04-01T20:10:52;2.80;;;1.20;;
20181;SDS011;10250;50.756;6.172;2023-04-01T20:21:43;4.13;;;1.07;;
20181;SDS011;10250;50.756;6.172;2023-04-01T20:25:54;3.50;;;1.10;;
20181;SDS011;10250;50.756;6.172;2023-04-01T20:41:03;4.37;;;1.20;;
20181;SDS011;10250;50.756;6.172;2023-04-01T20:43:33;2.20;;;1.00;;
20181;SDS011;10250;50.756;6.172;2023-04-01T20:46:01;2.13;;;0.90;;
20181;SDS011;10250;50.756;6.172;2023-04-01T20:50:53;2.60;;;0.80;;
20181;SDS011;10250;50.756;6.172;2023-04-01T20:53:22;2.03;;;0.60;;
20181;SDS011;10250;50.756;6.172;2023-04-01T20:58:17;2.33;;;1.03;;
20181;SDS011;10250;50.756;6.172;2023-04-01T21:16:38;2.43;;;1.03;;
20181;SDS011;10250;50.756;6.172;2023-04-01T21:23:48;2.27;;;0.90;;
20181;SDS011;10250;50.756;6.172;2023-04-01T21:26:29;3.50;;;1.00;;
20181;SDS011;10250;50.756;6.172;2023-04-01T21:28:45;2.60;;;1.10;;
20181;SDS011;10250;50.756;6.172;2023-04-01T21:38:12;1.67;;;0.90;;
20181;SDS011;10250;50.756;6.172;2023-04-01T21:40:53;3.93;;;1.10;;
20181;SDS011;10250;50.756;6.172;2023-04-01T21:49:35;4.87;;;1.40;;
20181;SDS011;10250;50.756;6.172;2023-04-01T21:54:43;4.33;;;1.27;;
20181;SDS011;10250;50.756;6.172;2023-04-01T22:06:03;4.10;;;1.20;;
20181;SDS011;10250;50.756;6.172;2023-04-01T22:10:50;3.93;;;1.27;;
20181;SDS011;10250;50.756;6.172;2023-04-01T22:17:47;4.10;;;1.23;;
20181;SDS011;10250;50.756;6.172;2023-04-01T22:24:43;5.70;;;1.57;;
20181;SDS011;10250;50.756;6.172;2023-04-01T22:31:02;6.30;;;1.57;;
20181;SDS011;10250;50.756;6.172;2023-04-01T22:33:07;4.10;;;1.43;;
20181;SDS011;10250;50.756;6.172;2023-04-01T22:35:33;6.07;;;1.93;;
20181;SDS011;10250;50.756;6.172;2023-04-01T22:45:33;4.83;;;1.43;;
20181;SDS011;10250;50.756;6.172;2023-04-01T22:49:46;3.77;;;1.23;;
20181;SDS011;10250;50.756;6.172;2023-04-01T22:54:40;5.07;;;1.40;;
20181;SDS011;10250;50.756;6.172;2023-04-01T22:56:55;2.73;;;1.17;;
20181;SDS011;10250;50.756;6.172;2023-04-01T22:59:10;3.57;;;1.20;;
20181;SDS011;10250;50.756;6.172;2023-04-01T23:01:17;3.00;;;1.07;;
20181;SDS011;10250;50.756;6.172;2023-04-01T23:05:23;2.80;;;1.00;;
20181;SDS011;10250;50.756;6.172;2023-04-01T23:09:33;5.70;;;1.43;;
20181;SDS011;10250;50.756;6.172;2023-04-01T23:14:49;5.73;;;1.60;;
20181;SDS011;10250;50.756;6.172;2023-04-01T23:16:25;7.60;;;2.10;;
20181;SDS011;10250;50.756;6.172;2023-04-01T23:18:45;8.47;;;1.67;;
20181;SDS011;10250;50.756;6.172;2023-04-01T23:21:18;8.93;;;2.10;;
20181;SDS011;10250;50.756;6.172;2023-04-01T23:32:38;9.53;;;2.30;;
20181;SDS011;10250;50.756;6.172;2023-04-01T23:34:39;8.70;;;2.50;;
20181;SDS011;10250;50.756;6.172;2023-04-01T23:36:49;8.53;;;2.10;;
20181;SDS011;10250;50.756;6.172;2023-04-01T23:38:52;11.07;;;2.40;;
20181;SDS011;10250;50.756;6.172;2023-04-01T23:40:54;10.67;;;2.60;;
20181;SDS011;10250;50.756;6.172;2023-04-01T23:42:55;8.50;;;2.50;;
20181;SDS011;10250;50.756;6.172;2023-04-01T23:44:56;8.57;;;2.47;;
20181;SDS011;10250;50.756;6.172;2023-04-01T23:47:03;10.03;;;2.37;;
20181;SDS011;10250;50.756;6.172;2023-04-01T23:49:06;8.10;;;2.13;;